createdAt,value
2023-03-15T00:00:04.098Z,2.38
2023-03-15T00:00:33.338Z,2.38
2023-03-15T00:01:05.257Z,2.38
2023-03-15T00:01:34.222Z,2.38
2023-03-15T00:01:53.280Z,2.38
2023-03-15T00:02:25.256Z,2.38
2023-03-15T00:02:41.758Z,2.38
2023-03-15T00:03:13.953Z,2.38
2023-03-15T00:03:34.887Z,2.38
2023-03-15T00:04:01.354Z,2.27
2023-03-15T00:04:33.209Z,2.27
2023-03-15T00:05:05.569Z,2.27
2023-03-15T00:05:34.276Z,2.27
2023-03-15T00:05:53.510Z,2.27
2023-03-15T00:06:26.063Z,2.27
2023-03-15T00:06:57.491Z,2.27
2023-03-15T00:07:29.204Z,2.27
2023-03-15T00:08:03.365Z,2.22
2023-03-15T00:08:33.307Z,2.22
2023-03-15T00:09:05.246Z,2.11
2023-03-15T00:09:37.936Z,2.11
2023-03-15T00:10:09.530Z,2.11
2023-03-15T00:10:35.968Z,2.11
2023-03-15T00:10:57.426Z,2.11
2023-03-15T00:11:29.248Z,2.11
2023-03-15T00:12:01.319Z,2.11
2023-03-15T00:12:33.235Z,2.11
2023-03-15T00:13:05.209Z,2.11
2023-03-15T00:13:37.173Z,2.22
2023-03-15T00:14:09.230Z,2.22
2023-03-15T00:14:35.812Z,2.11
2023-03-15T00:14:57.203Z,2.11
2023-03-15T00:15:30.383Z,2.11
2023-03-15T00:16:03.773Z,2.11
2023-03-15T00:16:33.337Z,2.11
2023-03-15T00:17:05.309Z,2.11
2023-03-15T00:17:37.245Z,2.11
2023-03-15T00:18:09.612Z,2.11
2023-03-15T00:18:35.802Z,2.11
2023-03-15T00:18:57.234Z,2.00
2023-03-15T00:19:29.190Z,2.00
2023-03-15T00:20:03.274Z,2.00
2023-03-15T00:20:33.252Z,2.00
2023-03-15T00:21:05.232Z,1.88
2023-03-15T00:21:37.198Z,1.88
2023-03-15T00:22:09.194Z,1.88
2023-03-15T00:22:35.768Z,1.88
2023-03-15T00:22:57.224Z,1.88
2023-03-15T00:23:29.284Z,1.88
2023-03-15T00:24:01.353Z,2.00
2023-03-15T00:24:33.239Z,2.00
2023-03-15T00:25:05.561Z,2.00
2023-03-15T00:25:40.984Z,2.00
2023-03-15T00:26:09.250Z,2.00
2023-03-15T00:26:35.767Z,2.00
2023-03-15T00:26:57.283Z,2.00
2023-03-15T00:27:29.300Z,1.88
2023-03-15T00:28:01.305Z,1.88
2023-03-15T00:28:33.263Z,2.00
2023-03-15T00:29:05.236Z,2.00
2023-03-15T00:29:37.191Z,2.00
2023-03-15T00:30:11.408Z,2.00
2023-03-15T00:30:35.814Z,2.00
2023-03-15T00:30:57.463Z,1.88
2023-03-15T00:31:29.317Z,1.88
2023-03-15T00:32:02.086Z,1.88
2023-03-15T00:32:33.464Z,1.88
2023-03-15T00:33:05.240Z,1.88
2023-03-15T00:33:37.208Z,1.88
2023-03-15T00:34:09.675Z,1.88
2023-03-15T00:34:35.768Z,1.88
2023-03-15T00:34:57.301Z,1.88
2023-03-15T00:35:29.551Z,1.88
2023-03-15T00:36:01.337Z,1.88
2023-03-15T00:36:33.235Z,1.77
2023-03-15T00:37:05.278Z,1.77
2023-03-15T00:37:37.237Z,1.77
2023-03-15T00:38:09.568Z,1.77
2023-03-15T00:38:35.792Z,1.77
2023-03-15T00:38:57.275Z,1.77
2023-03-15T00:39:29.250Z,1.77
2023-03-15T00:40:03.085Z,1.77
2023-03-15T00:40:34.202Z,1.77
2023-03-15T00:41:05.285Z,1.77
2023-03-15T00:41:38.081Z,1.77
2023-03-15T00:42:09.296Z,1.77
2023-03-15T00:42:35.887Z,1.77
2023-03-15T00:42:57.216Z,1.77
2023-03-15T00:43:29.223Z,1.77
2023-03-15T00:44:01.348Z,1.77
2023-03-15T00:44:33.224Z,1.72
2023-03-15T00:45:05.777Z,1.72
2023-03-15T00:45:37.276Z,1.72
2023-03-15T00:46:09.344Z,1.72
2023-03-15T00:46:35.862Z,1.72
2023-03-15T00:46:57.310Z,1.72
2023-03-15T00:47:29.300Z,1.72
2023-03-15T00:48:02.018Z,1.72
2023-03-15T00:48:33.881Z,1.72
2023-03-15T00:49:05.238Z,1.61
2023-03-15T00:49:37.279Z,1.61
2023-03-15T00:50:09.912Z,1.61
2023-03-15T00:50:35.776Z,1.61
2023-03-15T00:50:57.453Z,1.61
2023-03-15T00:51:29.220Z,1.61
2023-03-15T00:52:01.329Z,1.61
2023-03-15T00:52:33.256Z,1.61
2023-03-15T00:53:05.245Z,1.61
2023-03-15T00:53:37.214Z,1.61
2023-03-15T00:54:09.219Z,1.61
2023-03-15T00:54:35.798Z,1.61
2023-03-15T00:54:57.263Z,1.61
2023-03-15T00:55:29.673Z,1.61
2023-03-15T00:56:01.360Z,1.61
2023-03-15T00:56:33.298Z,1.61
2023-03-15T00:57:05.288Z,1.61
2023-03-15T00:57:38.099Z,1.61
2023-03-15T00:58:09.253Z,1.61
2023-03-15T00:58:35.792Z,1.61
2023-03-15T00:58:57.785Z,1.50
2023-03-15T00:59:29.229Z,1.50
2023-03-15T01:00:03.609Z,1.50
2023-03-15T01:00:33.283Z,1.50
2023-03-15T01:01:05.245Z,1.50
2023-03-15T01:01:37.264Z,1.50
2023-03-15T01:02:09.251Z,1.50
2023-03-15T01:02:35.827Z,1.50
2023-03-15T01:02:57.279Z,1.50
2023-03-15T01:03:29.263Z,1.50
2023-03-15T01:04:02.061Z,1.50
2023-03-15T01:04:33.287Z,1.50
2023-03-15T01:05:05.660Z,1.50
2023-03-15T01:05:37.286Z,1.50
2023-03-15T01:06:09.243Z,1.50
2023-03-15T01:06:35.776Z,1.50
2023-03-15T01:06:57.250Z,1.50
2023-03-15T01:07:29.246Z,1.50
2023-03-15T01:08:01.367Z,1.50
2023-03-15T01:08:33.226Z,1.50
2023-03-15T01:09:05.244Z,1.50
2023-03-15T01:09:37.206Z,1.50
2023-03-15T01:10:10.192Z,1.50
2023-03-15T01:10:35.793Z,1.50
2023-03-15T01:10:57.490Z,1.50
2023-03-15T01:11:29.243Z,1.50
2023-03-15T01:12:01.351Z,1.50
2023-03-15T01:12:33.311Z,1.50
2023-03-15T01:13:05.327Z,1.50
2023-03-15T01:13:37.940Z,1.50
2023-03-15T01:14:09.234Z,1.50
2023-03-15T01:14:35.753Z,1.50
2023-03-15T01:14:57.240Z,1.50
2023-03-15T01:15:30.380Z,1.50
2023-03-15T01:16:03.147Z,1.50
2023-03-15T01:16:33.434Z,1.61
2023-03-15T01:17:05.261Z,1.61
2023-03-15T01:17:37.222Z,1.61
2023-03-15T01:18:09.230Z,1.61
2023-03-15T01:18:35.751Z,1.61
2023-03-15T01:18:57.284Z,1.50
2023-03-15T01:19:29.326Z,1.50
2023-03-15T01:20:09.232Z,1.50
2023-03-15T01:20:39.605Z,1.50
2023-03-15T01:21:11.483Z,1.38
2023-03-15T01:21:43.513Z,1.38
2023-03-15T01:22:16.111Z,1.38
2023-03-15T01:22:39.524Z,1.38
2023-03-15T01:23:02.752Z,1.38
2023-03-15T01:23:35.478Z,1.38
2023-03-15T01:24:07.579Z,1.38
2023-03-15T01:24:39.558Z,1.38
2023-03-15T01:25:11.895Z,1.38
2023-03-15T01:25:43.521Z,1.38
2023-03-15T01:26:16.133Z,1.38
2023-03-15T01:26:35.740Z,1.38
2023-03-15T01:26:57.281Z,1.38
2023-03-15T01:27:29.337Z,1.38
2023-03-15T01:28:01.364Z,1.38
2023-03-15T01:28:33.787Z,1.38
2023-03-15T01:29:05.287Z,1.38
2023-03-15T01:29:38.008Z,1.38
2023-03-15T01:30:11.417Z,1.38
2023-03-15T01:30:35.794Z,1.38
2023-03-15T01:30:59.880Z,1.38
2023-03-15T01:31:29.282Z,1.27
2023-03-15T01:32:01.371Z,1.27
2023-03-15T01:32:33.291Z,1.27
2023-03-15T01:33:05.224Z,1.27
2023-03-15T01:33:37.227Z,1.27
2023-03-15T01:34:09.845Z,1.27
2023-03-15T01:34:35.745Z,1.27
2023-03-15T01:34:57.234Z,1.22
2023-03-15T01:35:29.613Z,1.22
2023-03-15T01:36:02.033Z,1.22
2023-03-15T01:36:33.784Z,1.22
2023-03-15T01:37:05.275Z,1.22
2023-03-15T01:37:37.274Z,1.22
2023-03-15T01:38:09.261Z,1.22
2023-03-15T01:38:35.762Z,1.22
2023-03-15T01:38:57.220Z,1.22
2023-03-15T01:39:29.236Z,1.22
2023-03-15T01:40:03.643Z,1.22
2023-03-15T01:40:33.598Z,1.22
2023-03-15T01:41:05.474Z,1.22
2023-03-15T01:41:37.968Z,1.22
2023-03-15T01:42:09.316Z,1.22
2023-03-15T01:42:35.824Z,1.22
2023-03-15T01:42:57.681Z,1.22
2023-03-15T01:43:30.683Z,1.22
2023-03-15T01:44:01.524Z,1.22
2023-03-15T01:44:33.703Z,1.22
2023-03-15T01:45:06.050Z,1.22
2023-03-15T01:45:37.435Z,1.22
2023-03-15T01:46:10.101Z,1.22
2023-03-15T01:46:35.986Z,1.22
2023-03-15T01:46:57.480Z,1.22
2023-03-15T01:47:29.402Z,1.22
2023-03-15T01:48:01.697Z,1.22
2023-03-15T01:48:33.493Z,1.22
2023-03-15T01:49:05.447Z,1.22
2023-03-15T01:49:38.091Z,1.22
2023-03-15T01:50:09.597Z,1.22
2023-03-15T01:50:36.080Z,1.22
2023-03-15T01:51:00.689Z,1.22
2023-03-15T01:51:29.359Z,1.22
2023-03-15T01:52:02.291Z,1.22
2023-03-15T01:52:33.758Z,1.22
2023-03-15T01:53:05.319Z,1.22
2023-03-15T01:53:37.518Z,1.22
2023-03-15T01:54:09.281Z,1.22
2023-03-15T01:54:35.806Z,1.22
2023-03-15T01:54:57.280Z,1.22
2023-03-15T01:55:29.671Z,1.11
2023-03-15T01:56:02.211Z,1.11
2023-03-15T01:56:33.326Z,1.11
2023-03-15T01:57:05.329Z,1.11
2023-03-15T01:57:37.632Z,1.22
2023-03-15T01:58:09.814Z,1.22
2023-03-15T01:58:36.910Z,1.22
2023-03-15T01:58:57.338Z,1.22
2023-03-15T01:59:29.343Z,1.22
2023-03-15T02:00:04.099Z,1.22
2023-03-15T02:00:33.392Z,1.22
2023-03-15T02:01:05.451Z,1.22
2023-03-15T02:01:37.321Z,1.22
2023-03-15T02:02:09.374Z,1.22
2023-03-15T02:02:35.822Z,1.22
2023-03-15T02:02:57.315Z,1.22
2023-03-15T02:03:29.302Z,1.22
2023-03-15T02:04:01.588Z,1.11
2023-03-15T02:04:33.658Z,1.11
2023-03-15T02:05:05.657Z,1.11
2023-03-15T02:05:38.131Z,1.11
2023-03-15T02:06:09.335Z,1.11
2023-03-15T02:06:35.859Z,1.11
2023-03-15T02:06:57.283Z,1.11
2023-03-15T02:07:29.340Z,1.11
2023-03-15T02:08:02.656Z,1.11
2023-03-15T02:08:33.354Z,1.00
2023-03-15T02:09:05.337Z,1.00
2023-03-15T02:09:37.405Z,.88
2023-03-15T02:10:09.703Z,.88
2023-03-15T02:10:35.895Z,.88
2023-03-15T02:10:57.749Z,.88
2023-03-15T02:11:29.331Z,.88
2023-03-15T02:12:02.110Z,1.00
2023-03-15T02:12:33.291Z,1.00
2023-03-15T02:13:05.312Z,.88
2023-03-15T02:13:37.436Z,.88
2023-03-15T02:14:09.266Z,.88
2023-03-15T02:14:35.803Z,.88
2023-03-15T02:14:57.307Z,.88
2023-03-15T02:15:30.547Z,.77
2023-03-15T02:16:03.291Z,.77
2023-03-15T02:16:33.369Z,.77
2023-03-15T02:17:05.360Z,.77
2023-03-15T02:17:37.271Z,.88
2023-03-15T02:18:09.753Z,1.00
2023-03-15T02:18:35.812Z,1.00
2023-03-15T02:18:57.718Z,1.00
2023-03-15T02:19:29.317Z,1.00
2023-03-15T02:20:03.718Z,1.00
2023-03-15T02:20:33.388Z,1.00
2023-03-15T02:21:05.315Z,1.00
2023-03-15T02:21:38.145Z,1.00
2023-03-15T02:22:09.262Z,1.00
2023-03-15T02:22:35.836Z,1.00
2023-03-15T02:22:57.692Z,1.00
2023-03-15T02:23:29.377Z,.88
2023-03-15T02:24:01.577Z,.88
2023-03-15T02:24:33.354Z,.88
2023-03-15T02:25:05.718Z,.88
2023-03-15T02:25:37.396Z,.88
2023-03-15T02:26:09.374Z,.88
2023-03-15T02:26:35.779Z,.88
2023-03-15T02:26:57.415Z,.88
2023-03-15T02:27:29.347Z,.88
2023-03-15T02:28:02.090Z,.88
2023-03-15T02:28:33.327Z,.88
2023-03-15T02:29:05.338Z,.88
2023-03-15T02:29:37.293Z,.77
2023-03-15T02:30:11.411Z,.77
2023-03-15T02:30:35.810Z,.77
2023-03-15T02:30:57.629Z,.77
2023-03-15T02:31:29.397Z,.77
2023-03-15T02:32:01.603Z,.77
2023-03-15T02:32:33.364Z,.77
2023-03-15T02:33:05.323Z,.77
2023-03-15T02:33:37.308Z,.77
2023-03-15T02:34:09.712Z,.77
2023-03-15T02:34:35.810Z,.77
2023-03-15T02:34:57.284Z,.77
2023-03-15T02:35:29.688Z,.77
2023-03-15T02:36:01.566Z,.77
2023-03-15T02:36:33.259Z,.77
2023-03-15T02:37:05.329Z,.77
2023-03-15T02:37:38.136Z,.77
2023-03-15T02:38:09.334Z,.77
2023-03-15T02:38:35.794Z,.77
2023-03-15T02:38:57.277Z,.77
2023-03-15T02:39:29.338Z,.77
2023-03-15T02:40:03.314Z,.77
2023-03-15T02:40:33.334Z,.72
2023-03-15T02:41:05.298Z,.72
2023-03-15T02:41:37.298Z,.72
2023-03-15T02:42:09.790Z,.72
2023-03-15T02:42:35.734Z,.72
2023-03-15T02:42:57.634Z,.72
2023-03-15T02:43:29.304Z,.72
2023-03-15T02:44:02.115Z,.61
2023-03-15T02:44:33.275Z,.61
2023-03-15T02:45:05.838Z,.61
2023-03-15T02:45:37.298Z,.61
2023-03-15T02:46:09.643Z,.61
2023-03-15T02:46:35.754Z,.61
2023-03-15T02:46:57.346Z,.61
2023-03-15T02:47:29.293Z,.61
2023-03-15T02:48:01.612Z,.61
2023-03-15T02:48:33.329Z,.61
2023-03-15T02:49:05.332Z,.61
2023-03-15T02:49:37.665Z,.61
2023-03-15T02:50:09.650Z,.72
2023-03-15T02:50:35.771Z,.72
2023-03-15T02:50:57.912Z,.72
2023-03-15T02:51:29.292Z,.72
2023-03-15T02:52:01.578Z,.72
2023-03-15T02:52:33.282Z,.61
2023-03-15T02:53:05.390Z,.61
2023-03-15T02:53:38.122Z,.50
2023-03-15T02:54:09.378Z,.50
2023-03-15T02:54:35.780Z,.50
2023-03-15T02:54:57.323Z,.50
2023-03-15T02:55:29.626Z,.50
2023-03-15T02:56:01.527Z,.38
2023-03-15T02:56:33.328Z,.38
2023-03-15T02:57:05.326Z,.38
2023-03-15T02:57:37.292Z,.38
2023-03-15T02:58:09.907Z,.38
2023-03-15T02:58:35.845Z,.38
2023-03-15T02:58:57.609Z,.38
2023-03-15T02:59:29.283Z,.38
2023-03-15T03:00:04.147Z,.38
2023-03-15T03:00:33.642Z,.38
2023-03-15T03:01:05.354Z,.38
2023-03-15T03:01:37.549Z,.38
2023-03-15T03:02:09.309Z,.38
2023-03-15T03:02:35.806Z,.38
2023-03-15T03:02:57.300Z,.38
2023-03-15T03:03:29.336Z,.38
2023-03-15T03:04:01.583Z,.27
2023-03-15T03:04:33.295Z,.27
2023-03-15T03:05:05.639Z,.27
2023-03-15T03:05:37.309Z,.27
2023-03-15T03:06:09.796Z,.27
2023-03-15T03:06:35.753Z,.27
2023-03-15T03:06:57.313Z,.27
2023-03-15T03:07:29.299Z,.27
2023-03-15T03:08:01.614Z,.27
2023-03-15T03:08:33.270Z,.27
2023-03-15T03:09:05.338Z,.27
2023-03-15T03:09:38.124Z,.27
2023-03-15T03:10:09.629Z,.27
2023-03-15T03:10:35.779Z,.27
2023-03-15T03:10:57.554Z,.27
2023-03-15T03:11:29.374Z,.27
2023-03-15T03:12:01.673Z,.27
2023-03-15T03:12:33.312Z,.27
2023-03-15T03:13:05.310Z,.27
2023-03-15T03:13:37.320Z,.27
2023-03-15T03:14:09.712Z,.27
2023-03-15T03:14:35.757Z,.38
2023-03-15T03:14:57.318Z,.38
2023-03-15T03:15:29.828Z,.38
2023-03-15T03:16:03.982Z,.38
2023-03-15T03:16:33.442Z,.38
2023-03-15T03:17:05.358Z,.38
2023-03-15T03:17:37.410Z,.38
2023-03-15T03:18:09.308Z,.38
2023-03-15T03:18:35.790Z,.38
2023-03-15T03:18:57.364Z,.38
2023-03-15T03:19:29.322Z,.38
2023-03-15T03:20:03.467Z,.38
2023-03-15T03:20:33.347Z,.38
2023-03-15T03:21:05.356Z,.38
2023-03-15T03:21:37.320Z,.38
2023-03-15T03:22:09.382Z,.38
2023-03-15T03:22:35.758Z,.38
2023-03-15T03:22:57.301Z,.38
2023-03-15T03:23:29.312Z,.38
2023-03-15T03:24:01.622Z,.38
2023-03-15T03:24:33.293Z,.38
2023-03-15T03:25:05.592Z,.38
2023-03-15T03:25:38.198Z,.38
2023-03-15T03:26:09.388Z,.38
2023-03-15T03:26:35.767Z,.38
2023-03-15T03:26:57.361Z,.38
2023-03-15T03:27:29.392Z,.38
2023-03-15T03:28:01.613Z,.38
2023-03-15T03:28:33.349Z,.38
2023-03-15T03:29:05.352Z,.38
2023-03-15T03:29:37.324Z,.38
2023-03-15T03:30:11.351Z,.38
2023-03-15T03:30:35.875Z,.50
2023-03-15T03:30:57.584Z,.50
2023-03-15T03:31:29.351Z,.50
2023-03-15T03:32:02.223Z,.50
2023-03-15T03:32:33.383Z,.50
2023-03-15T03:33:05.326Z,.50
2023-03-15T03:33:37.443Z,.50
2023-03-15T03:34:09.706Z,.50
2023-03-15T03:34:35.741Z,.50
2023-03-15T03:34:57.348Z,.50
2023-03-15T03:35:29.861Z,.50
2023-03-15T03:36:01.745Z,.50
2023-03-15T03:36:33.308Z,.50
2023-03-15T03:37:05.363Z,.50
2023-03-15T03:37:37.355Z,.50
2023-03-15T03:38:09.957Z,.50
2023-03-15T03:38:35.763Z,.50
2023-03-15T03:38:57.339Z,.50
2023-03-15T03:39:29.338Z,.61
2023-03-15T03:40:09.770Z,.61
2023-03-15T03:40:33.359Z,.61
2023-03-15T03:41:05.341Z,.61
2023-03-15T03:41:39.831Z,.61
2023-03-15T03:42:09.732Z,.61
2023-03-15T03:42:35.760Z,.61
2023-03-15T03:42:57.331Z,.61
2023-03-15T03:43:29.332Z,.61
2023-03-15T03:44:01.683Z,.61
2023-03-15T03:44:33.782Z,.61
2023-03-15T03:45:05.846Z,.61
2023-03-15T03:45:37.380Z,.72
2023-03-15T03:46:09.535Z,.72
2023-03-15T03:46:35.775Z,.72
2023-03-15T03:46:57.295Z,.72
2023-03-15T03:47:29.361Z,.72
2023-03-15T03:48:01.726Z,.72
2023-03-15T03:48:33.329Z,.72
2023-03-15T03:49:05.334Z,.61
2023-03-15T03:49:38.075Z,.61
2023-03-15T03:50:09.643Z,.61
2023-03-15T03:50:35.848Z,.61
2023-03-15T03:50:57.612Z,.61
2023-03-15T03:51:29.357Z,.61
2023-03-15T03:52:01.777Z,.61
2023-03-15T03:52:33.359Z,.61
2023-03-15T03:53:05.374Z,.61
2023-03-15T03:53:37.304Z,.61
2023-03-15T03:54:09.856Z,.61
2023-03-15T03:54:35.737Z,.61
2023-03-15T03:54:57.309Z,.61
2023-03-15T03:55:29.610Z,.61
2023-03-15T03:56:02.217Z,.50
2023-03-15T03:56:33.336Z,.50
2023-03-15T03:57:05.345Z,.50
2023-03-15T03:57:37.316Z,.50
2023-03-15T03:58:09.358Z,.50
2023-03-15T03:58:35.748Z,.50
2023-03-15T03:58:57.356Z,.50
2023-03-15T03:59:29.356Z,.50
2023-03-15T04:00:04.035Z,.50
2023-03-15T04:00:33.377Z,.38
2023-03-15T04:01:05.382Z,.50
2023-03-15T04:01:37.345Z,.50
2023-03-15T04:02:16.694Z,.50
2023-03-15T04:02:35.763Z,.50
2023-03-15T04:02:57.411Z,.50
2023-03-15T04:03:29.376Z,.50
2023-03-15T04:04:01.831Z,.50
2023-03-15T04:04:33.964Z,.50
2023-03-15T04:05:05.644Z,.50
2023-03-15T04:05:38.130Z,.50
2023-03-15T04:06:09.418Z,.50
2023-03-15T04:06:35.852Z,.50
2023-03-15T04:06:57.354Z,.50
2023-03-15T04:07:29.390Z,.50
2023-03-15T04:08:01.786Z,.50
2023-03-15T04:08:33.741Z,.50
2023-03-15T04:09:05.363Z,.50
2023-03-15T04:09:37.567Z,.50
2023-03-15T04:10:09.699Z,.50
2023-03-15T04:10:35.822Z,.50
2023-03-15T04:10:57.649Z,.50
2023-03-15T04:11:29.333Z,.50
2023-03-15T04:12:02.408Z,.50
2023-03-15T04:12:33.361Z,.50
2023-03-15T04:13:05.345Z,.50
2023-03-15T04:13:37.323Z,.50
2023-03-15T04:14:09.354Z,.61
2023-03-15T04:14:35.773Z,.61
2023-03-15T04:14:57.301Z,.61
2023-03-15T04:15:29.926Z,.61
2023-03-15T04:16:03.303Z,.72
2023-03-15T04:16:33.349Z,.72
2023-03-15T04:17:05.380Z,.61
2023-03-15T04:17:37.345Z,.61
2023-03-15T04:18:09.379Z,.61
2023-03-15T04:18:35.804Z,.61
2023-03-15T04:18:57.311Z,.61
2023-03-15T04:19:29.341Z,.61
2023-03-15T04:20:03.756Z,.61
2023-03-15T04:20:33.312Z,.61
2023-03-15T04:21:05.318Z,.61
2023-03-15T04:21:38.186Z,.61
2023-03-15T04:22:09.364Z,.61
2023-03-15T04:22:35.736Z,.61
2023-03-15T04:22:57.448Z,.61
2023-03-15T04:23:29.338Z,.61
2023-03-15T04:24:01.795Z,.61
2023-03-15T04:24:33.363Z,.61
2023-03-15T04:25:05.660Z,.61
2023-03-15T04:25:37.325Z,.61
2023-03-15T04:26:09.416Z,.61
2023-03-15T04:26:35.764Z,.61
2023-03-15T04:26:57.304Z,.61
2023-03-15T04:27:29.877Z,.61
2023-03-15T04:28:02.135Z,.61
2023-03-15T04:28:33.317Z,.61
2023-03-15T04:29:05.391Z,.50
2023-03-15T04:29:37.306Z,.50
2023-03-15T04:30:11.656Z,.50
2023-03-15T04:30:35.781Z,.50
2023-03-15T04:30:57.658Z,.50
2023-03-15T04:31:29.410Z,.50
2023-03-15T04:32:01.836Z,.50
2023-03-15T04:32:33.402Z,.50
2023-03-15T04:33:05.468Z,.50
2023-03-15T04:33:37.660Z,.50
2023-03-15T04:34:09.433Z,.50
2023-03-15T04:34:35.801Z,.50
2023-03-15T04:34:57.338Z,.61
2023-03-15T04:35:29.649Z,.61
2023-03-15T04:36:01.809Z,.61
2023-03-15T04:36:33.752Z,.61
2023-03-15T04:37:05.421Z,.61
2023-03-15T04:37:37.336Z,.61
2023-03-15T04:38:09.847Z,.61
2023-03-15T04:38:35.841Z,.61
2023-03-15T04:38:57.379Z,.61
2023-03-15T04:39:29.451Z,.61
2023-03-15T04:40:03.754Z,.61
2023-03-15T04:40:33.417Z,.61
2023-03-15T04:41:05.447Z,.61
2023-03-15T04:41:37.398Z,.61
2023-03-15T04:42:09.452Z,.61
2023-03-15T04:42:35.774Z,.61
2023-03-15T04:42:57.356Z,.61
2023-03-15T04:43:29.356Z,.61
2023-03-15T04:44:01.829Z,.61
2023-03-15T04:44:33.380Z,.61
2023-03-15T04:45:05.933Z,.61
2023-03-15T04:45:37.367Z,.61
2023-03-15T04:46:09.599Z,.61
2023-03-15T04:46:35.801Z,.61
2023-03-15T04:46:57.397Z,.61
2023-03-15T04:47:29.376Z,.61
2023-03-15T04:48:01.823Z,.61
2023-03-15T04:48:33.785Z,.61
2023-03-15T04:49:05.368Z,.61
2023-03-15T04:49:39.145Z,.50
2023-03-15T04:50:09.731Z,.61
2023-03-15T04:50:36.183Z,.61
2023-03-15T04:50:57.588Z,.61
2023-03-15T04:51:29.334Z,.61
2023-03-15T04:52:01.887Z,.61
2023-03-15T04:52:33.386Z,.61
2023-03-15T04:53:05.444Z,.61
2023-03-15T04:53:37.323Z,.72
2023-03-15T04:54:09.375Z,.72
2023-03-15T04:54:35.791Z,.72
2023-03-15T04:54:57.402Z,.72
2023-03-15T04:55:29.698Z,.72
2023-03-15T04:56:04.710Z,.61
2023-03-15T04:56:33.401Z,.61
2023-03-15T04:57:05.453Z,.50
2023-03-15T04:57:37.345Z,.50
2023-03-15T04:58:09.479Z,.50
2023-03-15T04:58:35.752Z,.50
2023-03-15T04:58:57.361Z,.50
2023-03-15T04:59:29.480Z,.50
2023-03-15T05:00:03.973Z,.50
2023-03-15T05:00:33.889Z,.50
2023-03-15T05:01:05.518Z,.50
2023-03-15T05:01:37.440Z,.50
2023-03-15T05:02:09.079Z,.50
2023-03-15T05:02:35.403Z,.50
2023-03-15T05:02:57.482Z,.50
2023-03-15T05:03:28.977Z,.38
2023-03-15T05:04:00.864Z,.38
2023-03-15T05:04:33.010Z,.38
2023-03-15T05:05:05.344Z,.38
2023-03-15T05:05:37.766Z,.38
2023-03-15T05:06:08.876Z,.38
2023-03-15T05:06:37.417Z,.38
2023-03-15T05:06:57.809Z,.38
2023-03-15T05:07:29.930Z,.38
2023-03-15T05:08:01.547Z,.38
2023-03-15T05:08:33.328Z,.38
2023-03-15T05:09:05.386Z,.38
2023-03-15T05:09:39.485Z,.38
2023-03-15T05:10:10.019Z,.38
2023-03-15T05:10:35.708Z,.38
2023-03-15T05:10:57.631Z,.38
2023-03-15T05:11:29.472Z,.38
2023-03-15T05:12:02.210Z,.38
2023-03-15T05:12:33.391Z,.38
2023-03-15T05:13:05.388Z,.38
2023-03-15T05:13:37.400Z,.38
2023-03-15T05:14:09.481Z,.38
2023-03-15T05:14:35.706Z,.38
2023-03-15T05:14:57.365Z,.38
2023-03-15T05:15:30.089Z,.38
2023-03-15T05:16:03.201Z,.38
2023-03-15T05:16:33.454Z,.38
2023-03-15T05:17:05.392Z,.38
2023-03-15T05:17:37.372Z,.38
2023-03-15T05:18:09.433Z,.38
2023-03-15T05:18:35.834Z,.38
2023-03-15T05:18:57.379Z,.38
2023-03-15T05:19:29.516Z,.38
2023-03-15T05:20:03.430Z,.38
2023-03-15T05:20:33.665Z,.38
2023-03-15T05:21:05.373Z,.38
2023-03-15T05:21:38.203Z,.38
2023-03-15T05:22:09.485Z,.38
2023-03-15T05:22:35.827Z,.27
2023-03-15T05:22:57.361Z,.27
2023-03-15T05:23:29.452Z,.27
2023-03-15T05:24:01.528Z,.38
2023-03-15T05:24:33.367Z,.38
2023-03-15T05:25:05.679Z,.38
2023-03-15T05:25:38.826Z,.38
2023-03-15T05:26:09.454Z,.38
2023-03-15T05:26:35.711Z,.38
2023-03-15T05:26:57.434Z,.38
2023-03-15T05:27:29.471Z,.38
2023-03-15T05:28:02.187Z,.38
2023-03-15T05:28:33.622Z,.38
2023-03-15T05:29:05.412Z,.38
2023-03-15T05:29:37.377Z,.38
2023-03-15T05:30:11.966Z,.38
2023-03-15T05:30:35.752Z,.38
2023-03-15T05:31:00.466Z,.38
2023-03-15T05:31:29.468Z,.38
2023-03-15T05:32:01.548Z,.50
2023-03-15T05:32:34.741Z,.50
2023-03-15T05:33:05.599Z,.50
2023-03-15T05:33:37.400Z,.50
2023-03-15T05:34:09.978Z,.50
2023-03-15T05:34:35.714Z,.50
2023-03-15T05:34:57.391Z,.50
2023-03-15T05:35:29.813Z,.50
2023-03-15T05:36:01.787Z,.50
2023-03-15T05:36:33.428Z,.50
2023-03-15T05:37:05.415Z,.50
2023-03-15T05:37:39.099Z,.50
2023-03-15T05:38:09.582Z,.50
2023-03-15T05:38:35.958Z,.61
2023-03-15T05:38:57.361Z,.61
2023-03-15T05:39:29.537Z,.61
2023-03-15T05:40:03.798Z,.61
2023-03-15T05:40:33.879Z,.72
2023-03-15T05:41:05.502Z,.72
2023-03-15T05:41:37.526Z,.72
2023-03-15T05:42:09.411Z,.72
2023-03-15T05:42:35.836Z,.72
2023-03-15T05:42:57.575Z,.72
2023-03-15T05:43:29.568Z,.72
2023-03-15T05:44:02.413Z,.72
2023-03-15T05:44:33.822Z,.72
2023-03-15T05:45:06.134Z,.72
2023-03-15T05:45:37.632Z,.72
2023-03-15T05:46:10.316Z,.72
2023-03-15T05:46:35.909Z,.72
2023-03-15T05:46:57.500Z,.77
2023-03-15T05:47:29.596Z,.77
2023-03-15T05:48:01.737Z,.77
2023-03-15T05:48:33.572Z,.77
2023-03-15T05:49:05.489Z,.77
2023-03-15T05:49:37.459Z,.77
2023-03-15T05:50:09.869Z,.77
2023-03-15T05:50:35.871Z,.77
2023-03-15T05:50:57.747Z,.77
2023-03-15T05:51:29.593Z,.77
2023-03-15T05:52:01.793Z,.77
2023-03-15T05:52:33.592Z,.77
2023-03-15T05:53:05.541Z,.77
2023-03-15T05:53:39.242Z,.88
2023-03-15T05:54:09.558Z,.88
2023-03-15T05:54:35.877Z,.88
2023-03-15T05:54:57.467Z,.88
2023-03-15T05:55:29.883Z,-1.17
2023-03-15T05:56:01.612Z,.88
2023-03-15T05:56:33.534Z,.88
2023-03-15T05:57:05.499Z,.88
2023-03-15T05:57:37.596Z,1.00
2023-03-15T05:58:09.583Z,1.00
2023-03-15T05:58:35.857Z,1.00
2023-03-15T05:58:57.550Z,1.00
2023-03-15T05:59:29.576Z,1.00
2023-03-15T06:00:04.176Z,1.00
2023-03-15T06:00:33.956Z,1.00
2023-03-15T06:01:05.547Z,1.00
2023-03-15T06:01:37.586Z,1.00
2023-03-15T06:02:09.563Z,1.11
2023-03-15T06:02:35.835Z,1.11
2023-03-15T06:02:57.511Z,1.11
2023-03-15T06:03:29.620Z,1.11
2023-03-15T06:04:01.839Z,1.11
2023-03-15T06:04:33.713Z,1.11
2023-03-15T06:05:05.807Z,1.11
2023-03-15T06:05:37.578Z,1.11
2023-03-15T06:06:09.561Z,1.11
2023-03-15T06:06:35.854Z,1.11
2023-03-15T06:06:57.563Z,1.11
2023-03-15T06:07:29.624Z,1.11
2023-03-15T06:08:01.775Z,1.11
2023-03-15T06:08:34.051Z,1.11
2023-03-15T06:09:05.545Z,1.11
2023-03-15T06:09:38.233Z,1.11
2023-03-15T06:10:10.520Z,1.11
2023-03-15T06:10:35.784Z,1.22
2023-03-15T06:10:58.833Z,1.22
2023-03-15T06:11:29.570Z,1.22
2023-03-15T06:12:01.748Z,1.22
2023-03-15T06:12:34.115Z,1.22
2023-03-15T06:13:05.474Z,-.40
2023-03-15T06:13:37.536Z,1.22
2023-03-15T06:14:09.651Z,1.22
2023-03-15T06:14:36.164Z,1.22
2023-03-15T06:14:57.494Z,1.22
2023-03-15T06:15:30.229Z,1.22
2023-03-15T06:16:03.531Z,1.22
2023-03-15T06:16:33.943Z,1.22
2023-03-15T06:17:05.594Z,1.22
2023-03-15T06:17:37.901Z,1.22
2023-03-15T06:18:09.568Z,1.22
2023-03-15T06:18:35.790Z,1.22
2023-03-15T06:18:57.992Z,1.22
2023-03-15T06:19:29.611Z,1.22
2023-03-15T06:20:03.706Z,1.22
2023-03-15T06:20:33.569Z,1.22
2023-03-15T06:21:05.507Z,1.22
2023-03-15T06:21:37.519Z,1.22
2023-03-15T06:22:09.667Z,1.22
2023-03-15T06:22:35.786Z,1.22
2023-03-15T06:22:57.510Z,1.22
2023-03-15T06:23:29.581Z,1.22
2023-03-15T06:24:01.733Z,1.22
2023-03-15T06:24:33.578Z,1.22
2023-03-15T06:25:05.846Z,1.27
2023-03-15T06:25:38.360Z,1.27
2023-03-15T06:26:09.570Z,1.27
2023-03-15T06:26:35.864Z,1.27
2023-03-15T06:26:57.483Z,1.27
2023-03-15T06:27:29.644Z,1.27
2023-03-15T06:28:01.856Z,1.27
2023-03-15T06:28:33.585Z,1.27
2023-03-15T06:29:05.534Z,1.27
2023-03-15T06:29:37.554Z,1.27
2023-03-15T06:30:11.826Z,1.27
2023-03-15T06:30:35.921Z,1.27
2023-03-15T06:30:57.941Z,1.27
2023-03-15T06:31:29.513Z,1.27
2023-03-15T06:32:02.310Z,1.27
2023-03-15T06:32:33.704Z,1.27
2023-03-15T06:33:05.707Z,1.38
2023-03-15T06:33:37.541Z,1.38
2023-03-15T06:34:09.627Z,1.38
2023-03-15T06:34:35.818Z,-.22
2023-03-15T06:34:57.571Z,1.38
2023-03-15T06:35:29.906Z,1.38
2023-03-15T06:36:01.832Z,1.38
2023-03-15T06:36:34.326Z,1.38
2023-03-15T06:37:05.499Z,1.50
2023-03-15T06:37:37.558Z,1.50
2023-03-15T06:38:11.487Z,1.50
2023-03-15T06:38:36.062Z,1.50
2023-03-15T06:38:57.863Z,1.50
2023-03-15T06:39:29.581Z,1.50
2023-03-15T06:40:03.859Z,1.50
2023-03-15T06:40:33.607Z,1.50
2023-03-15T06:41:05.585Z,1.50
2023-03-15T06:41:38.302Z,1.50
2023-03-15T06:42:09.583Z,1.50
2023-03-15T06:42:35.871Z,1.50
2023-03-15T06:42:57.554Z,1.50
2023-03-15T06:43:29.582Z,1.50
2023-03-15T06:44:01.837Z,1.50
2023-03-15T06:44:33.579Z,1.50
2023-03-15T06:45:06.091Z,1.50
2023-03-15T06:45:37.537Z,1.61
2023-03-15T06:46:09.801Z,1.61